< < Back
Terminal Aerodrome Forecast


Current Version              Previous Versions:   1  2  3  4  5  6  7  8  9  

Terminal Aerodrome Forecast

134
FTUS44 KOHX 291420 AAA
TAFCSV
TAF AMD
KCSV 291420Z 2914/3012 18006KT P6SM SCT020
      TEMPO 2914/2918 BKN020
     FM300000 00000KT P6SM OVC150=

Latest METAR

910
SAUS70 KWBC 291400 RRJ
MTRCSV
METAR KCSV 291353Z AUTO VRB04KT 10SM BKN019 23/18 A3024 RMK AO2 SLP222
T02330183


USA.gov is the U.S. government's official web portal to all federal, state and local government web resources and services.